Airport ID:KCCB
Update Time (UTC):02/07/2020 22:42
Wind Speed (Knots):10
Wind Direction (Magnetic):240
Temperature (°C):27.8
Dew Point (°C):9.5
Humidity (%):32.5
Altimeter (inHg):29.93
Density Altitude (Feet):03400
Visibility (Miles):10
Clouds (Hundreds of feet):CLR
Present Weather:
METAR:METAR KCCB 022240Z AUTO 26009G15KT 10SM CLR 28/09 A2993 RMK AO2

The data displayed is for advisory purposes only and is not to be used for flight planning or operations.